Time;durP1;ratioP1;P1;durP2;ratioP2;P2;SDS_P1;SDS_P2;PMS_P1;PMS_P2;Temp;Humidity;BMP_temperature;BMP_pressure;BME280_temperature;BME280_humidity;BME280_pressure;Samples;Min_cycle;Max_cycle;Signal;HPM_P1;HPM_P2
2021/06/27 00:01:52;;;;;;;7.60;6.40;;;15.40;99.90;;;;;;5024856;28;20521;-59
2021/06/27 00:04:19;;;;;;;8.70;6.70;;;15.40;99.90;;;;;;5024585;28;20446;-58
2021/06/27 00:06:46;;;;;;;8.17;6.40;;;15.30;99.90;;;;;;5023676;28;20173;-59
2021/06/27 00:09:12;;;;;;;7.60;6.30;;;15.30;99.90;;;;;;5018344;28;20435;-59
2021/06/27 00:11:38;;;;;;;9.63;6.77;;;15.20;99.90;;;;;;5021590;28;20472;-59
2021/06/27 00:14:04;;;;;;;9.10;7.07;;;15.20;99.90;;;;;;5026565;28;20430;-59
2021/06/27 00:16:31;;;;;;;11.37;8.07;;;15.20;99.90;;;;;;5023192;28;20180;-59
2021/06/27 00:18:58;;;;;;;10.20;7.40;;;15.10;99.90;;;;;;5027892;28;20935;-59
2021/06/27 00:21:24;;;;;;;7.00;5.90;;;15.10;99.90;;;;;;5023971;28;20440;-57
2021/06/27 00:23:51;;;;;;;7.97;7.00;;;15.10;99.90;;;;;;5026130;28;20542;-59
2021/06/27 00:26:20;;;;;;;7.33;6.07;;;15.10;99.90;;;;;;5028615;28;20438;-58
2021/06/27 00:28:46;;;;;;;14.07;6.33;;;15.00;99.90;;;;;;5027112;28;20449;-59
2021/06/27 00:31:12;;;;;;;10.57;7.70;;;15.00;99.90;;;;;;5024274;28;20954;-59
2021/06/27 00:33:38;;;;;;;8.30;6.73;;;14.90;99.90;;;;;;5023037;28;20212;-59
2021/06/27 00:36:05;;;;;;;10.10;6.90;;;14.90;99.90;;;;;;5026908;28;20426;-60
2021/06/27 00:38:30;;;;;;;11.90;7.20;;;14.80;99.90;;;;;;5020767;28;20202;-59
2021/06/27 00:40:56;;;;;;;8.63;7.37;;;14.80;99.90;;;;;;5026347;28;20439;-59
2021/06/27 00:43:22;;;;;;;9.60;7.57;;;14.80;99.90;;;;;;5027697;28;20190;-60
2021/06/27 00:45:49;;;;;;;8.83;7.47;;;14.80;99.90;;;;;;5023092;28;20177;-60
2021/06/27 00:48:15;;;;;;;10.27;7.23;;;14.70;99.90;;;;;;5024781;28;20438;-59
2021/06/27 00:50:42;;;;;;;11.03;7.00;;;14.70;99.90;;;;;;5027035;28;20484;-60
2021/06/27 00:53:09;;;;;;;13.33;7.57;;;14.70;99.90;;;;;;5026919;28;20454;-60
2021/06/27 00:55:35;;;;;;;8.90;7.30;;;14.70;99.90;;;;;;5028189;28;20438;-60
2021/06/27 00:58:02;;;;;;;9.20;7.00;;;14.70;99.90;;;;;;5024293;28;20434;-59
2021/06/27 01:00:31;;;;;;;12.30;6.90;;;14.60;99.90;;;;;;5025564;28;20434;-59
2021/06/27 01:02:58;;;;;;;13.27;7.20;;;14.60;99.90;;;;;;5025532;28;20465;-59
2021/06/27 01:05:27;;;;;;;11.17;7.50;;;14.60;99.90;;;;;;5031023;28;20422;-59
2021/06/27 01:07:53;;;;;;;13.03;7.43;;;14.60;99.90;;;;;;5028780;28;20442;-60
2021/06/27 01:10:19;;;;;;;12.17;8.83;;;14.60;99.90;;;;;;5027408;28;20492;-60
2021/06/27 01:12:45;;;;;;;14.67;8.63;;;14.60;99.90;;;;;;5030281;28;20486;-59
2021/06/27 01:15:13;;;;;;;10.70;8.30;;;14.60;99.90;;;;;;5030764;28;20787;-60
2021/06/27 01:17:40;;;;;;;19.80;8.87;;;14.50;99.90;;;;;;5025678;28;20461;-59
2021/06/27 01:20:24;;;;;;;12.73;7.17;;;14.50;99.90;;;;;;5026457;28;20469;-60
2021/06/27 01:22:51;;;;;;;16.43;6.73;;;14.50;99.90;;;;;;5042603;28;20911;-59
2021/06/27 01:25:25;;;;;;;8.90;7.20;;;14.50;99.90;;;;;;5029620;28;21193;-59
2021/06/27 01:27:51;;;;;;;8.67;6.90;;;14.50;99.90;;;;;;5026182;28;20530;-59
2021/06/27 01:30:18;;;;;;;8.80;7.33;;;14.50;99.90;;;;;;5024661;28;20462;-59
2021/06/27 01:32:46;;;;;;;12.70;7.47;;;14.50;99.90;;;;;;5024311;28;20474;-59
2021/06/27 01:35:14;;;;;;;9.10;7.30;;;14.50;99.90;;;;;;5024683;28;20435;-59
2021/06/27 01:37:41;;;;;;;11.73;7.47;;;14.50;99.90;;;;;;5028012;28;20888;-59
2021/06/27 01:40:08;;;;;;;18.00;7.20;;;14.40;99.90;;;;;;5027076;28;20483;-59
2021/06/27 01:42:34;;;;;;;9.47;7.10;;;14.40;99.90;;;;;;5025445;28;20658;-59
2021/06/27 01:45:17;;;;;;;10.93;7.47;;;14.40;99.90;;;;;;5021943;28;20438;-60
2021/06/27 01:47:43;;;;;;;9.40;7.07;;;14.40;99.90;;;;;;5043964;28;20434;-60
2021/06/27 01:50:10;;;;;;;10.40;7.60;;;14.30;99.90;;;;;;5046302;28;20549;-60
2021/06/27 01:52:36;;;;;;;11.83;6.90;;;14.30;99.90;;;;;;5047025;28;20446;-60
2021/06/27 01:55:04;;;;;;;10.77;6.83;;;14.30;99.90;;;;;;5049648;28;20438;-60
2021/06/27 01:57:29;;;;;;;10.30;6.30;;;14.30;99.90;;;;;;5045488;28;20438;-66
2021/06/27 01:59:55;;;;;;;10.80;6.90;;;14.30;99.90;;;;;;5049476;28;20454;-60
2021/06/27 02:02:21;;;;;;;11.90;6.97;;;14.30;99.90;;;;;;5049681;28;20214;-59
2021/06/27 02:04:47;;;;;;;12.33;7.27;;;14.20;99.90;;;;;;5047953;28;20449;-60
2021/06/27 02:07:13;;;;;;;10.10;7.33;;;14.20;99.90;;;;;;5051101;28;20184;-60
2021/06/27 02:09:42;;;;;;;8.40;7.20;;;14.20;99.90;;;;;;5045205;28;20242;-59
2021/06/27 02:12:09;;;;;;;9.27;7.20;;;14.20;99.90;;;;;;5028846;28;21005;-60
2021/06/27 02:14:37;;;;;;;9.93;7.10;;;14.20;99.90;;;;;;5026832;28;20445;-60
2021/06/27 02:17:03;;;;;;;9.43;7.53;;;14.20;99.90;;;;;;5024989;28;20453;-60
2021/06/27 02:19:29;;;;;;;10.23;7.00;;;14.20;99.90;;;;;;5028789;28;20434;-59
2021/06/27 02:21:54;;;;;;;9.30;6.80;;;14.20;99.90;;;;;;5023561;28;20802;-59
2021/06/27 02:24:20;;;;;;;9.07;7.57;;;14.10;99.90;;;;;;5022824;28;20179;-60
2021/06/27 02:26:46;;;;;;;9.70;7.60;;;14.10;99.90;;;;;;5026489;28;20184;-60
2021/06/27 02:29:11;;;;;;;10.33;7.13;;;14.10;99.90;;;;;;5028160;28;20176;-60
2021/06/27 02:31:37;;;;;;;8.60;7.50;;;14.00;99.90;;;;;;5023544;28;20701;-59
2021/06/27 02:34:03;;;;;;;10.67;7.50;;;14.10;99.90;;;;;;5025344;28;20176;-59
2021/06/27 02:36:29;;;;;;;15.53;6.80;;;14.10;99.90;;;;;;5028555;28;20569;-59
2021/06/27 02:38:55;;;;;;;10.37;7.50;;;14.10;99.90;;;;;;5028674;28;20233;-61
2021/06/27 02:41:21;;;;;;;13.03;7.50;;;14.10;99.90;;;;;;5015222;28;20430;-60
2021/06/27 02:43:46;;;;;;;10.07;6.93;;;14.10;99.90;;;;;;5027427;28;20458;-59
2021/06/27 02:46:13;;;;;;;8.90;7.33;;;14.10;99.90;;;;;;5027621;28;20457;-59
2021/06/27 02:48:38;;;;;;;13.67;8.00;;;14.10;99.90;;;;;;5026521;28;20193;-59
2021/06/27 02:51:05;;;;;;;7.77;6.80;;;14.10;99.90;;;;;;5016685;28;20460;-60
2021/06/27 02:53:31;;;;;;;9.37;7.17;;;14.10;99.90;;;;;;5022962;28;20215;-59
2021/06/27 02:56:08;;;;;;;9.00;7.07;;;14.10;99.90;;;;;;5025836;28;20856;-59
2021/06/27 02:58:42;;;;;;;9.40;7.13;;;14.10;99.90;;;;;;5021977;28;20184;-60
2021/06/27 03:01:09;;;;;;;10.17;6.70;;;14.10;99.90;;;;;;5017520;28;20451;-59
2021/06/27 03:03:37;;;;;;;9.67;6.93;;;14.10;99.90;;;;;;5027404;28;20482;-61
2021/06/27 03:06:02;;;;;;;9.80;7.10;;;14.10;99.90;;;;;;5025267;28;20431;-60
2021/06/27 03:08:29;;;;;;;11.20;7.07;;;14.10;99.90;;;;;;5023264;28;20438;-61
2021/06/27 03:10:54;;;;;;;9.03;7.50;;;14.10;99.90;;;;;;5025986;28;20199;-59
2021/06/27 03:13:20;;;;;;;7.40;6.60;;;14.00;99.90;;;;;;5016777;28;20455;-59
2021/06/27 03:15:45;;;;;;;8.30;6.63;;;14.00;99.90;;;;;;5027067;28;20185;-60
2021/06/27 03:18:11;;;;;;;9.13;6.90;;;14.00;99.90;;;;;;5024334;28;20184;-60
2021/06/27 03:20:37;;;;;;;7.73;6.70;;;14.00;99.90;;;;;;5025980;28;20214;-59
2021/06/27 03:23:03;;;;;;;8.60;6.83;;;14.00;99.90;;;;;;5028130;28;20442;-59
2021/06/27 03:25:30;;;;;;;7.50;6.70;;;14.00;99.90;;;;;;5026602;28;20180;-60
2021/06/27 03:27:56;;;;;;;9.60;7.23;;;13.90;99.90;;;;;;5026858;28;20267;-59
2021/06/27 03:30:22;;;;;;;7.93;6.43;;;13.90;99.90;;;;;;5028359;28;20724;-58
2021/06/27 03:32:48;;;;;;;7.30;6.50;;;13.90;99.90;;;;;;5036013;22;20230;-54
2021/06/27 03:35:14;;;;;;;9.20;6.63;;;13.90;99.90;;;;;;5021692;28;20435;-54
2021/06/27 03:37:50;;;;;;;7.33;6.47;;;13.90;99.90;;;;;;5028220;28;20194;-55
2021/06/27 03:40:17;;;;;;;12.00;7.60;;;13.90;99.90;;;;;;5022545;28;20735;-53
2021/06/27 03:42:42;;;;;;;9.37;6.67;;;13.90;99.90;;;;;;5028330;28;20449;-56
2021/06/27 03:45:08;;;;;;;7.40;6.27;;;13.90;99.90;;;;;;5023014;28;20438;-54
2021/06/27 03:47:34;;;;;;;29.87;8.60;;;13.90;99.90;;;;;;5022734;28;20386;-55
2021/06/27 03:50:00;;;;;;;7.83;6.70;;;13.90;99.90;;;;;;5021425;28;20477;-55
2021/06/27 03:52:25;;;;;;;11.03;7.30;;;13.90;99.90;;;;;;5020264;28;20173;-55
2021/06/27 03:54:51;;;;;;;7.47;6.50;;;13.90;99.90;;;;;;5021646;28;20180;-54
2021/06/27 03:57:17;;;;;;;9.03;7.03;;;13.90;99.90;;;;;;5022363;28;20257;-55
2021/06/27 03:59:42;;;;;;;10.27;7.63;;;13.90;99.90;;;;;;5025782;28;20237;-55
2021/06/27 04:02:08;;;;;;;10.60;7.40;;;13.90;99.90;;;;;;5019912;28;20493;-54
2021/06/27 04:04:34;;;;;;;10.40;6.57;;;13.90;99.90;;;;;;5022268;28;20281;-55
2021/06/27 04:06:59;;;;;;;9.60;7.13;;;14.00;99.90;;;;;;5023602;28;20543;-54
2021/06/27 04:09:25;;;;;;;12.67;7.37;;;14.00;99.90;;;;;;5022393;28;20187;-55
2021/06/27 04:11:50;;;;;;;9.23;7.47;;;14.00;99.90;;;;;;5024097;28;20657;-54
2021/06/27 04:14:16;;;;;;;9.20;7.53;;;14.00;99.90;;;;;;5026292;28;20286;-54
2021/06/27 04:16:42;;;;;;;8.33;6.87;;;14.00;99.90;;;;;;5031199;28;20172;-54
2021/06/27 04:19:07;;;;;;;18.20;7.90;;;14.10;99.90;;;;;;5024625;28;20214;-55
2021/06/27 04:21:33;;;;;;;7.87;6.57;;;14.10;99.90;;;;;;5023213;28;20187;-55
2021/06/27 04:23:58;;;;;;;9.00;7.67;;;14.10;99.90;;;;;;5033477;28;20206;-54
2021/06/27 04:26:24;;;;;;;10.00;7.83;;;14.10;99.90;;;;;;5025801;28;21477;-56
2021/06/27 04:28:50;;;;;;;9.37;7.60;;;14.10;99.90;;;;;;5029195;28;20721;-55
2021/06/27 04:31:15;;;;;;;9.97;6.53;;;14.10;99.90;;;;;;5024300;28;20259;-55
2021/06/27 04:33:41;;;;;;;11.23;7.70;;;14.10;99.90;;;;;;5022374;28;20336;-55
2021/06/27 04:36:07;;;;;;;11.20;7.17;;;14.10;99.90;;;;;;5025958;28;20182;-57
2021/06/27 04:38:32;;;;;;;10.70;7.17;;;14.10;99.90;;;;;;5036984;28;20171;-56
2021/06/27 04:40:58;;;;;;;9.90;7.40;;;14.10;99.90;;;;;;5010766;28;20239;-56
2021/06/27 04:43:24;;;;;;;11.43;7.87;;;14.10;99.90;;;;;;5025731;28;20208;-54
2021/06/27 04:45:50;;;;;;;8.87;6.80;;;14.10;99.90;;;;;;5031888;28;20629;-55
2021/06/27 04:48:15;;;;;;;7.57;6.77;;;14.20;99.90;;;;;;5023825;28;20207;-55
2021/06/27 04:50:41;;;;;;;8.77;7.43;;;14.20;99.90;;;;;;5025892;28;20274;-55
2021/06/27 04:53:12;;;;;;;10.77;7.37;;;14.20;99.90;;;;;;5024944;28;20318;-56
2021/06/27 04:55:38;;;;;;;9.03;7.37;;;14.20;99.90;;;;;;5026839;28;20431;-57
2021/06/27 04:58:04;;;;;;;10.30;7.23;;;14.20;99.90;;;;;;5027070;28;20430;-55
2021/06/27 05:00:30;;;;;;;8.00;7.00;;;14.20;99.90;;;;;;5024228;28;20461;-54
2021/06/27 05:02:55;;;;;;;9.40;7.83;;;14.20;99.90;;;;;;5036066;28;20199;-55
2021/06/27 05:05:21;;;;;;;12.93;8.10;;;14.20;99.90;;;;;;5028802;28;20212;-55
2021/06/27 05:07:46;;;;;;;9.17;7.20;;;14.20;99.90;;;;;;5017926;28;20184;-54
2021/06/27 05:10:12;;;;;;;8.83;7.50;;;14.30;99.90;;;;;;5025495;28;20203;-54
2021/06/27 05:12:38;;;;;;;10.30;7.27;;;14.30;99.90;;;;;;5022336;28;20199;-56
2021/06/27 05:15:04;;;;;;;10.67;8.20;;;14.40;99.90;;;;;;5027738;28;20699;-55
2021/06/27 05:17:30;;;;;;;10.03;7.37;;;14.40;99.90;;;;;;5027810;28;20172;-55
2021/06/27 05:19:56;;;;;;;15.97;7.77;;;14.40;99.90;;;;;;5021066;28;20477;-56
2021/06/27 05:22:21;;;;;;;10.07;7.47;;;14.50;99.90;;;;;;5025137;28;20187;-56
2021/06/27 05:24:47;;;;;;;9.50;7.40;;;14.50;99.90;;;;;;5028708;28;20180;-56
2021/06/27 05:27:13;;;;;;;11.10;7.90;;;14.60;99.90;;;;;;5024812;28;20271;-56
2021/06/27 05:29:38;;;;;;;12.23;7.07;;;14.60;99.90;;;;;;5025877;28;20215;-56
2021/06/27 05:32:05;;;;;;;13.87;7.57;;;14.70;99.90;;;;;;5026444;28;20183;-56
2021/06/27 05:34:30;;;;;;;9.27;7.27;;;14.70;99.90;;;;;;5025735;28;20303;-56
2021/06/27 05:36:57;;;;;;;11.37;8.43;;;14.80;99.90;;;;;;5031640;28;20881;-55
2021/06/27 05:39:23;;;;;;;9.60;7.63;;;14.80;99.90;;;;;;5024929;28;20180;-56
2021/06/27 05:41:49;;;;;;;11.50;7.67;;;14.90;99.90;;;;;;5025796;28;20422;-55
2021/06/27 05:44:15;;;;;;;11.30;7.93;;;14.90;99.90;;;;;;5026311;28;20963;-55
2021/06/27 05:46:41;;;;;;;8.73;7.47;;;15.00;99.90;;;;;;5025337;28;20594;-56
2021/06/27 05:49:06;;;;;;;10.77;7.13;;;15.00;99.90;;;;;;5023760;28;20176;-57
2021/06/27 05:51:33;;;;;;;12.30;7.97;;;15.10;99.90;;;;;;5014807;28;20678;-55
2021/06/27 05:53:58;;;;;;;11.93;8.37;;;15.10;99.90;;;;;;5025741;28;20241;-55
2021/06/27 05:56:24;;;;;;;9.13;8.00;;;15.10;99.90;;;;;;5025289;28;20836;-56
2021/06/27 05:58:50;;;;;;;10.60;8.17;;;15.20;99.90;;;;;;5024235;28;20706;-56
2021/06/27 06:01:17;;;;;;;11.67;8.40;;;15.30;99.90;;;;;;5026363;28;20789;-56
2021/06/27 06:03:44;;;;;;;10.20;8.20;;;15.40;99.90;;;;;;5024349;28;20211;-54
2021/06/27 06:06:12;;;;;;;10.40;8.07;;;15.50;99.90;;;;;;5025762;28;20431;-53
2021/06/27 06:08:42;;;;;;;11.30;8.60;;;15.60;99.90;;;;;;5023287;28;20454;-53
2021/06/27 06:11:12;;;;;;;11.03;7.60;;;15.70;99.90;;;;;;5017466;28;20552;-53
2021/06/27 06:13:38;;;;;;;9.37;7.57;;;15.80;99.90;;;;;;5019960;28;20445;-53
2021/06/27 06:16:05;;;;;;;10.40;7.70;;;15.90;99.90;;;;;;5022483;28;20442;-53
2021/06/27 06:18:31;;;;;;;9.00;6.97;;;16.00;99.90;;;;;;5018958;28;20923;-53
2021/06/27 06:20:58;;;;;;;9.93;8.10;;;16.20;99.90;;;;;;5021468;28;20438;-54
2021/06/27 06:23:24;;;;;;;11.70;8.20;;;16.30;99.90;;;;;;5024046;28;20580;-53
2021/06/27 06:25:49;;;;;;;8.53;7.20;;;16.50;99.90;;;;;;5017557;28;20518;-54
2021/06/27 06:28:15;;;;;;;11.50;8.80;;;16.60;99.90;;;;;;5026465;28;20245;-54
2021/06/27 06:30:41;;;;;;;18.23;8.17;;;16.70;99.90;;;;;;5025872;28;20199;-54
2021/06/27 06:33:12;;;;;;;11.00;7.30;;;16.90;99.90;;;;;;5024582;28;20219;-52
2021/06/27 06:35:42;;;;;;;10.23;7.93;;;17.00;99.90;;;;;;5020229;28;20191;-53
2021/06/27 06:38:09;;;;;;;9.70;7.60;;;17.10;99.90;;;;;;5019321;28;20427;-54
2021/06/27 06:40:35;;;;;;;10.97;8.00;;;17.20;99.90;;;;;;5021584;28;20442;-55
2021/06/27 06:43:01;;;;;;;9.50;7.37;;;17.30;99.90;;;;;;5015504;28;20454;-52
2021/06/27 06:45:27;;;;;;;9.83;7.30;;;17.40;99.90;;;;;;5026045;28;20410;-53
2021/06/27 06:47:54;;;;;;;9.90;7.60;;;17.50;99.90;;;;;;5022956;28;20434;-53
2021/06/27 06:50:20;;;;;;;9.40;7.73;;;17.60;99.90;;;;;;5019515;28;20542;-52
2021/06/27 06:52:46;;;;;;;8.80;7.60;;;17.70;99.90;;;;;;5024750;28;20458;-54
2021/06/27 06:55:12;;;;;;;10.27;7.43;;;17.80;99.90;;;;;;5025311;28;20431;-53
2021/06/27 06:57:38;;;;;;;10.17;7.00;;;17.90;99.90;;;;;;5025701;28;20255;-53
2021/06/27 07:00:07;;;;;;;9.70;7.57;;;18.00;99.90;;;;;;5025820;28;20963;-53
2021/06/27 07:02:32;;;;;;;12.70;7.40;;;18.10;99.90;;;;;;5016025;28;20621;-54
2021/06/27 07:04:59;;;;;;;8.57;7.40;;;18.20;99.90;;;;;;5028372;28;20448;-53
2021/06/27 07:07:24;;;;;;;11.47;6.70;;;18.40;99.90;;;;;;5032378;28;20191;-53
2021/06/27 07:09:50;;;;;;;16.10;7.07;;;18.50;99.90;;;;;;5021748;28;20505;-53
2021/06/27 07:12:15;;;;;;;8.97;6.77;;;18.60;99.90;;;;;;5024534;28;20175;-52
2021/06/27 07:14:43;;;;;;;8.10;6.57;;;18.80;99.90;;;;;;5028545;28;20176;-53
2021/06/27 07:17:09;;;;;;;8.03;6.27;;;18.90;99.90;;;;;;5029037;28;20279;-54
2021/06/27 07:19:35;;;;;;;9.90;7.00;;;19.00;99.90;;;;;;5018778;28;20461;-54
2021/06/27 07:22:00;;;;;;;11.20;7.00;;;19.10;99.90;;;;;;5021952;28;20187;-54
2021/06/27 07:24:26;;;;;;;9.10;6.90;;;19.20;99.60;;;;;;5033497;28;20202;-54
2021/06/27 07:26:52;;;;;;;13.10;5.90;;;19.30;99.60;;;;;;5023949;28;20258;-54
2021/06/27 07:29:17;;;;;;;8.27;5.33;;;19.40;99.70;;;;;;5024517;28;20251;-54
2021/06/27 07:31:43;;;;;;;6.80;5.60;;;19.60;99.50;;;;;;5020427;28;20331;-54
2021/06/27 07:34:08;;;;;;;9.00;5.40;;;19.80;98.30;;;;;;5021523;28;20203;-54
2021/06/27 07:36:34;;;;;;;5.80;5.20;;;20.00;97.50;;;;;;5023790;28;20589;-53
2021/06/27 07:39:00;;;;;;;6.30;5.40;;;20.10;96.50;;;;;;5026609;28;20175;-53
2021/06/27 07:41:25;;;;;;;6.73;5.60;;;20.20;96.00;;;;;;5012363;28;20171;-54
2021/06/27 07:43:51;;;;;;;7.23;5.40;;;20.30;95.50;;;;;;5009012;28;20192;-53
2021/06/27 07:46:18;;;;;;;7.57;5.70;;;20.40;95.10;;;;;;5016895;28;20275;-54
2021/06/27 07:48:43;;;;;;;5.77;5.17;;;20.50;95.50;;;;;;5009580;28;20902;-53
2021/06/27 07:51:10;;;;;;;6.50;5.80;;;20.60;96.00;;;;;;4996556;28;20552;-54
2021/06/27 07:53:37;;;;;;;7.33;5.60;;;20.70;95.60;;;;;;5003603;28;20228;-53
2021/06/27 07:56:03;;;;;;;13.03;5.73;;;20.80;94.30;;;;;;5018619;28;20548;-53
2021/06/27 07:58:29;;;;;;;7.50;5.57;;;20.80;94.20;;;;;;4998819;28;20261;-54
2021/06/27 08:00:54;;;;;;;6.43;5.00;;;20.90;94.10;;;;;;5007303;28;20522;-54
2021/06/27 08:03:20;;;;;;;5.60;5.10;;;20.90;93.10;;;;;;5008525;28;20314;-55
2021/06/27 08:05:46;;;;;;;6.90;6.17;;;20.90;92.90;;;;;;5008233;28;20199;-53
2021/06/27 08:08:12;;;;;;;9.10;5.93;;;21.00;94.10;;;;;;5013296;28;20201;-53
2021/06/27 08:10:38;;;;;;;5.87;5.33;;;21.10;94.30;;;;;;5012540;28;20326;-54
2021/06/27 08:13:04;;;;;;;6.97;5.87;;;21.10;93.60;;;;;;5017720;28;20541;-54
2021/06/27 08:15:29;;;;;;;8.17;6.00;;;21.20;94.00;;;;;;5008348;28;20383;-54
2021/06/27 08:17:55;;;;;;;7.10;5.47;;;21.30;93.60;;;;;;5007141;28;20202;-54
2021/06/27 08:20:22;;;;;;;5.60;5.00;;;21.40;92.40;;;;;;5006309;28;20183;-55
2021/06/27 08:22:48;;;;;;;7.20;5.87;;;21.40;93.10;;;;;;4999504;28;20262;-54
2021/06/27 08:25:14;;;;;;;6.57;5.97;;;21.50;92.70;;;;;;5001735;28;20673;-55
2021/06/27 08:27:40;;;;;;;7.00;5.50;;;21.40;91.60;;;;;;5014970;28;20776;-54
2021/06/27 08:30:09;;;;;;;6.60;5.90;;;21.50;92.10;;;;;;5013113;28;21011;-55
2021/06/27 08:32:45;;;;;;;6.83;5.60;;;21.60;92.90;;;;;;5015737;28;20436;-54
2021/06/27 08:35:13;;;;;;;6.03;5.43;;;21.70;93.40;;;;;;5007092;28;20470;-55
2021/06/27 08:37:39;;;;;;;6.83;5.03;;;21.90;94.70;;;;;;5008967;28;20996;-54
2021/06/27 08:40:06;;;;;;;8.07;5.87;;;22.20;94.00;;;;;;5010770;28;20473;-55
2021/06/27 08:42:32;;;;;;;6.20;4.97;;;22.40;93.20;;;;;;5015202;28;20511;-55
2021/06/27 08:44:58;;;;;;;5.37;4.87;;;22.50;92.70;;;;;;5008221;28;20437;-55
2021/06/27 08:47:24;;;;;;;6.20;4.70;;;22.70;92.30;;;;;;5010239;28;20265;-54
2021/06/27 08:49:51;;;;;;;5.40;4.90;;;22.90;90.10;;;;;;5014574;28;20460;-54
2021/06/27 08:52:18;;;;;;;5.40;4.70;;;22.90;87.50;;;;;;5001053;28;20495;-54
2021/06/27 08:54:47;;;;;;;5.43;4.87;;;23.00;87.80;;;;;;5004383;28;20424;-54
2021/06/27 08:57:14;;;;;;;5.00;4.50;;;23.10;87.80;;;;;;5006660;28;20986;-56
2021/06/27 08:59:40;;;;;;;5.80;4.70;;;23.10;90.00;;;;;;5012817;28;20430;-56
2021/06/27 09:02:08;;;;;;;5.67;4.70;;;23.10;90.50;;;;;;5013114;28;20560;-54
2021/06/27 09:04:39;;;;;;;5.37;4.83;;;23.30;87.80;;;;;;5014651;28;20576;-55
2021/06/27 09:07:42;;;;;;;5.03;4.63;;;23.40;86.60;;;;;;5006758;28;20443;-57
2021/06/27 09:10:16;;;;;;;5.67;5.10;;;23.50;85.80;;;;;;5008780;28;20454;-55
2021/06/27 09:12:46;;;;;;;7.30;4.47;;;23.50;85.50;;;;;;5013127;28;20453;-54
2021/06/27 09:15:13;;;;;;;4.93;4.33;;;23.60;82.80;;;;;;5013902;28;20430;-55
2021/06/27 09:17:44;;;;;;;4.07;3.67;;;23.60;82.30;;;;;;5017388;28;20425;-54
2021/06/27 09:20:11;;;;;;;5.33;4.13;;;23.80;80.40;;;;;;5015617;28;20442;-53
2021/06/27 09:22:41;;;;;;;4.27;3.70;;;23.90;78.00;;;;;;5015130;28;20454;-54
2021/06/27 09:25:14;;;;;;;3.70;3.40;;;24.00;74.40;;;;;;5015136;28;20902;-55
2021/06/27 09:27:41;;;;;;;3.53;3.23;;;24.10;73.30;;;;;;5009607;28;20955;-56
2021/06/27 09:30:21;;;;;;;3.33;3.03;;;24.20;71.40;;;;;;5011098;28;20493;-55
2021/06/27 09:32:58;;;;;;;4.43;3.27;;;24.30;65.60;;;;;;5021240;28;20473;-54
2021/06/27 09:35:36;;;;;;;3.07;2.80;;;24.30;62.30;;;;;;5033757;22;20915;-59
2021/06/27 09:38:38;;;;;;;3.10;2.80;;;24.40;61.60;;;;;;5009830;28;20626;-60
2021/06/27 09:41:14;;;;;;;3.60;3.33;;;24.50;61.50;;;;;;5007799;28;20511;-59
2021/06/27 09:43:47;;;;;;;3.80;3.40;;;24.60;60.60;;;;;;5006631;28;20414;-61
2021/06/27 09:46:12;;;;;;;4.03;3.63;;;24.70;59.00;;;;;;5004773;28;20438;-61
2021/06/27 09:49:00;;;;;;;3.67;3.20;;;24.70;58.80;;;;;;5007169;28;20473;-60
2021/06/27 09:51:29;;;;;;;3.13;2.77;;;24.80;57.50;;;;;;5013180;28;20269;-60
2021/06/27 09:53:56;;;;;;;3.77;3.47;;;24.80;58.30;;;;;;5012552;28;20501;-60
2021/06/27 09:56:24;;;;;;;5.00;3.30;;;25.00;58.10;;;;;;5024139;28;20854;-59
2021/06/27 09:59:01;;;;;;;3.40;2.97;;;25.20;57.30;;;;;;5022136;28;20422;-59
2021/06/27 10:01:28;;;;;;;3.20;2.90;;;25.30;57.20;;;;;;5015486;28;20956;-60
2021/06/27 10:04:00;;;;;;;4.87;3.40;;;25.40;56.50;;;;;;5020043;28;20501;-61
2021/06/27 10:06:34;;;;;;;3.13;2.87;;;25.60;56.90;;;;;;5015527;28;20488;-60
2021/06/27 10:09:11;;;;;;;3.30;3.00;;;25.70;56.30;;;;;;5024767;28;20475;-60
2021/06/27 10:11:37;;;;;;;7.03;3.53;;;25.80;54.50;;;;;;5018466;28;20450;-60
2021/06/27 10:14:10;;;;;;;3.80;3.00;;;25.80;53.50;;;;;;5012368;28;20486;-60
2021/06/27 10:16:37;;;;;;;3.43;3.10;;;25.70;53.60;;;;;;5009096;28;20923;-60
2021/06/27 10:19:03;;;;;;;3.10;2.90;;;25.70;51.70;;;;;;5025015;28;20429;-60
2021/06/27 10:21:30;;;;;;;2.70;2.50;;;25.80;53.30;;;;;;5020587;28;20449;-58
2021/06/27 10:23:57;;;;;;;3.10;2.63;;;25.90;52.50;;;;;;5019604;28;20512;-58
2021/06/27 10:26:25;;;;;;;5.03;3.10;;;26.10;50.80;;;;;;5024083;28;20446;-60
2021/06/27 10:28:52;;;;;;;3.37;3.07;;;26.20;52.30;;;;;;5026113;28;20982;-60
2021/06/27 10:31:22;;;;;;;5.50;3.70;;;26.20;52.20;;;;;;5023004;28;20447;-60
2021/06/27 10:33:49;;;;;;;3.47;2.97;;;26.20;52.60;;;;;;5022057;28;20469;-59
2021/06/27 10:36:31;;;;;;;3.50;3.20;;;26.20;52.00;;;;;;5018390;28;20502;-59
2021/06/27 10:38:59;;;;;;;5.83;3.77;;;26.10;52.10;;;;;;5018664;28;20502;-60
2021/06/27 10:41:48;;;;;;;3.23;2.73;;;26.00;52.50;;;;;;5020605;28;20426;-59
2021/06/27 10:44:13;;;;;;;3.80;3.50;;;25.80;53.10;;;;;;5024641;28;20915;-60
2021/06/27 10:46:45;;;;;;;3.37;3.10;;;25.50;54.00;;;;;;5026213;28;20435;-59
2021/06/27 10:49:46;;;;;;;4.00;2.97;;;25.40;54.30;;;;;;5016528;28;20223;-60
2021/06/27 10:52:12;;;;;;;3.93;3.60;;;25.60;54.00;;;;;;4943639;28;20432;-60
2021/06/27 10:55:20;;;;;;;3.40;3.10;;;25.90;53.60;;;;;;5009221;28;21046;-60
2021/06/27 10:58:12;;;;;;;4.07;3.47;;;26.20;53.20;;;;;;5020056;28;20481;-60
2021/06/27 11:00:53;;;;;;;3.83;3.53;;;26.50;53.90;;;;;;5021198;28;20419;-59
2021/06/27 11:03:54;;;;;;;4.30;3.43;;;26.80;52.80;;;;;;5024975;28;20833;-60
2021/06/27 11:06:25;;;;;;;4.00;3.60;;;26.90;51.50;;;;;;4949532;28;20964;-60
2021/06/27 11:09:08;;;;;;;3.83;3.40;;;27.10;51.60;;;;;;5011989;28;20518;-60
2021/06/27 11:11:53;;;;;;;3.33;3.13;;;27.10;50.90;;;;;;5017320;28;20875;-57
2021/06/27 11:14:20;;;;;;;4.60;3.30;;;27.40;52.30;;;;;;5020032;28;20453;-59
2021/06/27 11:16:59;;;;;;;6.93;5.07;;;27.50;49.90;;;;;;5023545;28;20422;-61
2021/06/27 11:19:37;;;;;;;3.73;3.23;;;27.50;50.10;;;;;;5022555;28;20440;-61
2021/06/27 11:22:23;;;;;;;4.80;3.33;;;27.50;49.90;;;;;;5021202;28;20422;-61
2021/06/27 11:24:57;;;;;;;3.10;2.60;;;27.60;49.60;;;;;;5022756;28;20521;-59
2021/06/27 11:27:45;;;;;;;2.90;2.70;;;27.60;49.20;;;;;;5020590;28;20441;-60
2021/06/27 11:30:20;;;;;;;3.80;3.10;;;27.60;49.10;;;;;;5025229;28;20454;-60
2021/06/27 11:32:48;;;;;;;3.80;3.20;;;27.60;50.10;;;;;;5014943;28;20464;-61
2021/06/27 11:35:36;;;;;;;3.00;2.80;;;27.50;50.60;;;;;;5020600;28;21044;-62
2021/06/27 11:38:02;;;;;;;3.37;3.17;;;27.60;49.80;;;;;;5023144;28;20836;-61
2021/06/27 11:41:04;;;;;;;3.17;2.97;;;27.60;48.90;;;;;;5017481;28;20431;-60
2021/06/27 11:43:54;;;;;;;2.80;2.60;;;27.70;47.90;;;;;;4971839;28;20435;-59
2021/06/27 11:46:38;;;;;;;3.53;3.00;;;27.60;49.20;;;;;;5017456;28;20476;-60
2021/06/27 11:49:13;;;;;;;3.37;2.40;;;27.60;49.90;;;;;;5022928;28;20456;-60
2021/06/27 11:51:49;;;;;;;4.73;2.83;;;27.70;48.80;;;;;;5016107;28;20461;-59
2021/06/27 11:54:24;;;;;;;4.40;2.63;;;27.80;48.50;;;;;;5026841;28;20481;-59
2021/06/27 11:57:07;;;;;;;5.93;2.87;;;28.10;48.60;;;;;;5021386;28;20440;-60
2021/06/27 11:59:51;;;;;;;2.70;2.50;;;28.40;47.40;;;;;;5021774;28;20430;-60
2021/06/27 12:02:21;;;;;;;3.20;3.00;;;28.30;47.10;;;;;;5019515;28;20422;-60
2021/06/27 12:04:50;;;;;;;3.07;2.77;;;28.20;48.10;;;;;;5022831;28;20199;-59
2021/06/27 12:07:43;;;;;;;3.63;3.23;;;27.90;48.20;;;;;;5013142;28;20736;-59
2021/06/27 12:10:15;;;;;;;4.90;2.90;;;27.80;49.40;;;;;;5023779;28;20191;-60
2021/06/27 12:12:46;;;;;;;4.37;2.93;;;27.60;48.60;;;;;;5022848;28;20438;-60
2021/06/27 12:15:15;;;;;;;3.17;2.87;;;27.50;49.30;;;;;;5025227;28;20528;-61
2021/06/27 12:17:45;;;;;;;3.23;2.80;;;27.50;49.30;;;;;;5030630;28;20511;-61
2021/06/27 12:20:12;;;;;;;2.60;2.40;;;27.50;49.10;;;;;;5006861;28;20431;-61
2021/06/27 12:23:00;;;;;;;4.53;3.10;;;27.50;48.20;;;;;;5017848;28;20499;-60
2021/06/27 12:25:27;;;;;;;2.93;2.73;;;27.70;48.80;;;;;;5024963;28;20437;-59
2021/06/27 12:27:54;;;;;;;3.00;2.50;;;28.10;49.30;;;;;;5023401;28;20437;-60
2021/06/27 12:30:52;;;;;;;2.57;2.37;;;28.40;49.50;;;;;;5021959;28;20449;-60
2021/06/27 12:33:23;;;;;;;4.70;2.83;;;28.80;47.80;;;;;;5017750;28;20445;-59
2021/06/27 12:35:56;;;;;;;3.63;2.80;;;29.10;48.20;;;;;;5021483;28;20207;-61
2021/06/27 12:38:22;;;;;;;3.00;2.73;;;29.30;47.30;;;;;;5017862;28;20167;-61
2021/06/27 12:40:51;;;;;;;3.57;3.27;;;29.50;47.40;;;;;;5024958;28;20179;-60
2021/06/27 12:43:21;;;;;;;3.03;2.60;;;29.60;46.30;;;;;;5021191;28;20559;-60
2021/06/27 12:46:21;;;;;;;2.70;2.50;;;29.80;45.30;;;;;;5020417;28;20207;-60
2021/06/27 12:48:58;;;;;;;2.80;2.60;;;29.90;44.70;;;;;;5023891;28;20503;-61
2021/06/27 12:51:31;;;;;;;4.27;3.47;;;29.90;46.30;;;;;;5023106;28;20294;-60
2021/06/27 12:54:17;;;;;;;2.53;2.33;;;30.10;44.70;;;;;;5027685;28;20195;-60